sensor_id;sensor_type;location;lat;lon;timestamp;temperature;humidity
25991;DHT22;13779;-33.886;151.198;2023-03-23T00:01:29;23.70;99.90
25991;DHT22;13779;-33.886;151.198;2023-03-23T00:03:59;23.70;99.90
25991;DHT22;13779;-33.886;151.198;2023-03-23T00:06:28;23.70;99.90
25991;DHT22;13779;-33.886;151.198;2023-03-23T00:09:00;23.80;99.90
25991;DHT22;13779;-33.886;151.198;2023-03-23T00:11:31;23.80;99.90
25991;DHT22;13779;-33.886;151.198;2023-03-23T00:14:01;23.80;99.90
25991;DHT22;13779;-33.886;151.198;2023-03-23T00:16:32;23.90;99.90
25991;DHT22;13779;-33.886;151.198;2023-03-23T00:19:10;23.90;99.90
25991;DHT22;13779;-33.886;151.198;2023-03-23T00:21:43;24.00;99.90
25991;DHT22;13779;-33.886;151.198;2023-03-23T00:24:16;24.00;99.90
25991;DHT22;13779;-33.886;151.198;2023-03-23T00:26:48;24.00;99.90
25991;DHT22;13779;-33.886;151.198;2023-03-23T00:29:23;24.00;99.90
25991;DHT22;13779;-33.886;151.198;2023-03-23T00:31:51;23.90;99.90
25991;DHT22;13779;-33.886;151.198;2023-03-23T00:34:21;23.90;99.90
25991;DHT22;13779;-33.886;151.198;2023-03-23T00:36:54;23.90;99.90
25991;DHT22;13779;-33.886;151.198;2023-03-23T00:39:27;23.90;99.90
25991;DHT22;13779;-33.886;151.198;2023-03-23T00:41:56;24.00;99.90
25991;DHT22;13779;-33.886;151.198;2023-03-23T00:44:33;24.00;99.90
25991;DHT22;13779;-33.886;151.198;2023-03-23T00:47:03;24.00;99.90
25991;DHT22;13779;-33.886;151.198;2023-03-23T00:49:32;24.00;99.90
25991;DHT22;13779;-33.886;151.198;2023-03-23T00:52:03;24.00;99.90
25991;DHT22;13779;-33.886;151.198;2023-03-23T00:54:32;23.90;99.90
25991;DHT22;13779;-33.886;151.198;2023-03-23T00:57:01;24.00;99.90
25991;DHT22;13779;-33.886;151.198;2023-03-23T00:59:30;24.00;99.90
25991;DHT22;13779;-33.886;151.198;2023-03-23T01:01:58;24.00;99.90
25991;DHT22;13779;-33.886;151.198;2023-03-23T01:04:27;23.90;99.90
25991;DHT22;13779;-33.886;151.198;2023-03-23T01:06:59;24.00;99.90
25991;DHT22;13779;-33.886;151.198;2023-03-23T01:09:28;23.90;99.90
25991;DHT22;13779;-33.886;151.198;2023-03-23T01:11:56;23.90;99.90
25991;DHT22;13779;-33.886;151.198;2023-03-23T01:14:25;23.90;99.90
25991;DHT22;13779;-33.886;151.198;2023-03-23T01:16:54;23.90;99.90
25991;DHT22;13779;-33.886;151.198;2023-03-23T01:19:22;23.90;99.90
25991;DHT22;13779;-33.886;151.198;2023-03-23T01:21:50;23.90;99.90
25991;DHT22;13779;-33.886;151.198;2023-03-23T01:24:19;23.90;99.90
25991;DHT22;13779;-33.886;151.198;2023-03-23T01:26:48;23.90;99.90
25991;DHT22;13779;-33.886;151.198;2023-03-23T01:29:17;23.90;99.90
25991;DHT22;13779;-33.886;151.198;2023-03-23T01:31:45;24.00;99.90
25991;DHT22;13779;-33.886;151.198;2023-03-23T01:34:14;24.10;99.90
25991;DHT22;13779;-33.886;151.198;2023-03-23T01:36:42;24.10;99.90
25991;DHT22;13779;-33.886;151.198;2023-03-23T01:39:11;24.20;99.90
25991;DHT22;13779;-33.886;151.198;2023-03-23T01:41:39;24.20;99.90
25991;DHT22;13779;-33.886;151.198;2023-03-23T01:46:46;24.30;99.90
25991;DHT22;13779;-33.886;151.198;2023-03-23T01:49:19;24.30;99.90
25991;DHT22;13779;-33.886;151.198;2023-03-23T01:52:04;24.30;99.90
25991;DHT22;13779;-33.886;151.198;2023-03-23T01:54:36;24.30;99.90
25991;DHT22;13779;-33.886;151.198;2023-03-23T01:57:17;24.30;99.90
25991;DHT22;13779;-33.886;151.198;2023-03-23T01:59:53;24.30;99.90
25991;DHT22;13779;-33.886;151.198;2023-03-23T02:02:25;24.30;99.90
25991;DHT22;13779;-33.886;151.198;2023-03-23T02:04:59;24.30;99.90
25991;DHT22;13779;-33.886;151.198;2023-03-23T02:07:30;24.40;99.90
25991;DHT22;13779;-33.886;151.198;2023-03-23T02:09:59;24.40;99.90
25991;DHT22;13779;-33.886;151.198;2023-03-23T02:12:28;24.40;99.90
25991;DHT22;13779;-33.886;151.198;2023-03-23T02:14:57;24.30;99.90
25991;DHT22;13779;-33.886;151.198;2023-03-23T02:17:44;24.30;99.90
25991;DHT22;13779;-33.886;151.198;2023-03-23T02:20:40;24.30;99.90
25991;DHT22;13779;-33.886;151.198;2023-03-23T02:26:19;24.30;99.90
25991;DHT22;13779;-33.886;151.198;2023-03-23T02:29:11;24.20;99.90
25991;DHT22;13779;-33.886;151.198;2023-03-23T02:31:56;24.30;99.90
25991;DHT22;13779;-33.886;151.198;2023-03-23T02:34:38;24.30;99.90
25991;DHT22;13779;-33.886;151.198;2023-03-23T02:37:30;24.20;99.90
25991;DHT22;13779;-33.886;151.198;2023-03-23T02:40:06;24.30;99.90
25991;DHT22;13779;-33.886;151.198;2023-03-23T02:42:41;24.30;99.90
25991;DHT22;13779;-33.886;151.198;2023-03-23T02:45:12;24.30;99.90
25991;DHT22;13779;-33.886;151.198;2023-03-23T02:47:42;24.40;99.90
25991;DHT22;13779;-33.886;151.198;2023-03-23T02:50:14;24.40;99.90
25991;DHT22;13779;-33.886;151.198;2023-03-23T02:52:44;24.40;99.90
25991;DHT22;13779;-33.886;151.198;2023-03-23T02:55:14;24.50;99.90
25991;DHT22;13779;-33.886;151.198;2023-03-23T02:57:43;24.50;99.90
25991;DHT22;13779;-33.886;151.198;2023-03-23T03:00:15;24.50;99.90
25991;DHT22;13779;-33.886;151.198;2023-03-23T03:02:54;24.50;99.90
25991;DHT22;13779;-33.886;151.198;2023-03-23T03:11:02;24.60;99.90
25991;DHT22;13779;-33.886;151.198;2023-03-23T03:13:57;24.70;99.90
25991;DHT22;13779;-33.886;151.198;2023-03-23T03:16:42;24.70;99.90
25991;DHT22;13779;-33.886;151.198;2023-03-23T03:19:30;24.80;99.90
25991;DHT22;13779;-33.886;151.198;2023-03-23T03:22:00;24.90;99.90
25991;DHT22;13779;-33.886;151.198;2023-03-23T03:24:31;25.10;99.90
25991;DHT22;13779;-33.886;151.198;2023-03-23T03:27:01;25.20;99.90
25991;DHT22;13779;-33.886;151.198;2023-03-23T03:29:39;25.20;99.90
25991;DHT22;13779;-33.886;151.198;2023-03-23T03:32:14;25.10;99.90
25991;DHT22;13779;-33.886;151.198;2023-03-23T03:34:44;25.00;99.90
25991;DHT22;13779;-33.886;151.198;2023-03-23T03:37:13;24.90;99.90
25991;DHT22;13779;-33.886;151.198;2023-03-23T03:39:42;24.80;99.90
25991;DHT22;13779;-33.886;151.198;2023-03-23T03:42:11;24.80;99.90
25991;DHT22;13779;-33.886;151.198;2023-03-23T03:44:40;24.70;99.90
25991;DHT22;13779;-33.886;151.198;2023-03-23T03:47:08;24.70;99.90
25991;DHT22;13779;-33.886;151.198;2023-03-23T03:49:36;24.60;99.90
25991;DHT22;13779;-33.886;151.198;2023-03-23T03:52:05;24.50;99.90
25991;DHT22;13779;-33.886;151.198;2023-03-23T03:54:33;24.50;99.90
25991;DHT22;13779;-33.886;151.198;2023-03-23T03:57:02;24.40;99.90
25991;DHT22;13779;-33.886;151.198;2023-03-23T03:59:36;24.30;99.90
25991;DHT22;13779;-33.886;151.198;2023-03-23T04:02:05;24.20;99.90
25991;DHT22;13779;-33.886;151.198;2023-03-23T04:04:33;24.20;99.90
25991;DHT22;13779;-33.886;151.198;2023-03-23T04:07:02;24.20;99.90
25991;DHT22;13779;-33.886;151.198;2023-03-23T04:09:32;24.20;99.90
25991;DHT22;13779;-33.886;151.198;2023-03-23T04:12:01;24.20;99.90
25991;DHT22;13779;-33.886;151.198;2023-03-23T04:14:29;24.20;99.90
25991;DHT22;13779;-33.886;151.198;2023-03-23T04:16:58;24.20;99.90
25991;DHT22;13779;-33.886;151.198;2023-03-23T04:19:27;24.30;99.90
25991;DHT22;13779;-33.886;151.198;2023-03-23T04:21:56;24.30;99.90
25991;DHT22;13779;-33.886;151.198;2023-03-23T04:24:26;24.20;99.90
25991;DHT22;13779;-33.886;151.198;2023-03-23T04:26:55;24.10;99.90
25991;DHT22;13779;-33.886;151.198;2023-03-23T04:29:24;24.10;99.90
25991;DHT22;13779;-33.886;151.198;2023-03-23T04:31:52;24.10;99.90
25991;DHT22;13779;-33.886;151.198;2023-03-23T04:34:23;24.10;99.90
25991;DHT22;13779;-33.886;151.198;2023-03-23T04:36:52;24.10;99.90
25991;DHT22;13779;-33.886;151.198;2023-03-23T04:39:21;24.20;99.90
25991;DHT22;13779;-33.886;151.198;2023-03-23T04:41:49;24.30;99.90
25991;DHT22;13779;-33.886;151.198;2023-03-23T04:44:17;24.30;99.90
25991;DHT22;13779;-33.886;151.198;2023-03-23T04:46:48;24.40;99.90
25991;DHT22;13779;-33.886;151.198;2023-03-23T04:49:16;24.40;99.90
25991;DHT22;13779;-33.886;151.198;2023-03-23T04:51:48;24.40;99.90
25991;DHT22;13779;-33.886;151.198;2023-03-23T04:54:17;24.40;99.90
25991;DHT22;13779;-33.886;151.198;2023-03-23T04:56:45;24.40;99.90
25991;DHT22;13779;-33.886;151.198;2023-03-23T04:59:13;24.50;99.90
25991;DHT22;13779;-33.886;151.198;2023-03-23T05:01:42;24.40;99.90
25991;DHT22;13779;-33.886;151.198;2023-03-23T05:04:12;24.40;99.90
25991;DHT22;13779;-33.886;151.198;2023-03-23T05:06:43;24.30;99.90
25991;DHT22;13779;-33.886;151.198;2023-03-23T05:09:12;24.20;99.90
25991;DHT22;13779;-33.886;151.198;2023-03-23T05:11:40;24.10;99.90
25991;DHT22;13779;-33.886;151.198;2023-03-23T05:14:08;24.10;99.90
25991;DHT22;13779;-33.886;151.198;2023-03-23T05:16:36;24.10;99.90
25991;DHT22;13779;-33.886;151.198;2023-03-23T05:19:05;24.10;99.90
25991;DHT22;13779;-33.886;151.198;2023-03-23T05:21:34;23.90;99.90
25991;DHT22;13779;-33.886;151.198;2023-03-23T05:24:05;23.90;99.90
25991;DHT22;13779;-33.886;151.198;2023-03-23T05:26:33;23.80;99.90
25991;DHT22;13779;-33.886;151.198;2023-03-23T05:29:01;23.80;99.90
25991;DHT22;13779;-33.886;151.198;2023-03-23T05:31:29;23.80;99.90
25991;DHT22;13779;-33.886;151.198;2023-03-23T05:33:57;23.70;99.90
25991;DHT22;13779;-33.886;151.198;2023-03-23T05:36:25;23.70;99.90
25991;DHT22;13779;-33.886;151.198;2023-03-23T05:38:53;23.70;99.90
25991;DHT22;13779;-33.886;151.198;2023-03-23T05:41:21;23.70;99.90
25991;DHT22;13779;-33.886;151.198;2023-03-23T05:43:50;23.70;99.90
25991;DHT22;13779;-33.886;151.198;2023-03-23T05:46:18;23.70;99.90
25991;DHT22;13779;-33.886;151.198;2023-03-23T05:48:46;23.60;99.90
25991;DHT22;13779;-33.886;151.198;2023-03-23T05:51:14;23.70;99.90
25991;DHT22;13779;-33.886;151.198;2023-03-23T05:53:42;23.70;99.90
25991;DHT22;13779;-33.886;151.198;2023-03-23T05:56:10;23.70;99.90
25991;DHT22;13779;-33.886;151.198;2023-03-23T05:58:39;23.70;99.90
25991;DHT22;13779;-33.886;151.198;2023-03-23T06:01:08;23.60;99.90
25991;DHT22;13779;-33.886;151.198;2023-03-23T06:03:36;23.70;99.90
25991;DHT22;13779;-33.886;151.198;2023-03-23T06:06:05;23.50;99.90
25991;DHT22;13779;-33.886;151.198;2023-03-23T06:08:35;23.40;99.90
25991;DHT22;13779;-33.886;151.198;2023-03-23T06:11:05;23.20;99.90
25991;DHT22;13779;-33.886;151.198;2023-03-23T06:13:33;23.20;99.90
25991;DHT22;13779;-33.886;151.198;2023-03-23T06:16:01;23.10;99.90
25991;DHT22;13779;-33.886;151.198;2023-03-23T06:18:31;23.00;99.90
25991;DHT22;13779;-33.886;151.198;2023-03-23T06:21:00;23.00;99.90
25991;DHT22;13779;-33.886;151.198;2023-03-23T06:23:29;22.90;99.90
25991;DHT22;13779;-33.886;151.198;2023-03-23T06:26:06;22.80;99.90
25991;DHT22;13779;-33.886;151.198;2023-03-23T06:28:35;22.70;99.90
25991;DHT22;13779;-33.886;151.198;2023-03-23T06:31:04;22.70;99.90
25991;DHT22;13779;-33.886;151.198;2023-03-23T06:33:35;22.60;99.90
25991;DHT22;13779;-33.886;151.198;2023-03-23T06:36:04;22.60;99.90
25991;DHT22;13779;-33.886;151.198;2023-03-23T06:38:32;22.50;99.90
25991;DHT22;13779;-33.886;151.198;2023-03-23T06:41:00;22.40;99.90
25991;DHT22;13779;-33.886;151.198;2023-03-23T06:43:29;22.40;99.90
25991;DHT22;13779;-33.886;151.198;2023-03-23T06:45:59;22.30;99.90
25991;DHT22;13779;-33.886;151.198;2023-03-23T06:48:28;22.30;99.90
25991;DHT22;13779;-33.886;151.198;2023-03-23T06:50:56;22.30;99.90
25991;DHT22;13779;-33.886;151.198;2023-03-23T06:53:24;22.30;99.90
25991;DHT22;13779;-33.886;151.198;2023-03-23T06:55:52;22.20;99.90
25991;DHT22;13779;-33.886;151.198;2023-03-23T06:58:20;22.10;99.90
25991;DHT22;13779;-33.886;151.198;2023-03-23T07:00:53;22.10;99.90
25991;DHT22;13779;-33.886;151.198;2023-03-23T07:03:22;22.10;99.90
25991;DHT22;13779;-33.886;151.198;2023-03-23T07:05:50;22.10;99.90
25991;DHT22;13779;-33.886;151.198;2023-03-23T07:08:18;22.00;99.90
25991;DHT22;13779;-33.886;151.198;2023-03-23T07:10:50;21.90;99.90
25991;DHT22;13779;-33.886;151.198;2023-03-23T07:13:19;21.80;99.90
25991;DHT22;13779;-33.886;151.198;2023-03-23T07:15:48;21.80;99.90
25991;DHT22;13779;-33.886;151.198;2023-03-23T07:18:17;21.80;99.90
25991;DHT22;13779;-33.886;151.198;2023-03-23T07:20:52;21.80;99.90
25991;DHT22;13779;-33.886;151.198;2023-03-23T07:23:20;21.80;99.90
25991;DHT22;13779;-33.886;151.198;2023-03-23T07:25:48;21.90;99.90
25991;DHT22;13779;-33.886;151.198;2023-03-23T07:28:16;21.90;99.90
25991;DHT22;13779;-33.886;151.198;2023-03-23T07:30:45;21.70;99.90
25991;DHT22;13779;-33.886;151.198;2023-03-23T07:33:14;21.70;99.90
25991;DHT22;13779;-33.886;151.198;2023-03-23T07:35:43;21.70;99.90
25991;DHT22;13779;-33.886;151.198;2023-03-23T07:38:11;21.70;99.90
25991;DHT22;13779;-33.886;151.198;2023-03-23T07:40:41;21.70;99.90
25991;DHT22;13779;-33.886;151.198;2023-03-23T07:43:10;21.70;99.90
25991;DHT22;13779;-33.886;151.198;2023-03-23T07:45:39;21.70;99.90
25991;DHT22;13779;-33.886;151.198;2023-03-23T07:48:07;21.70;99.90
25991;DHT22;13779;-33.886;151.198;2023-03-23T07:50:40;21.70;99.90
25991;DHT22;13779;-33.886;151.198;2023-03-23T07:53:09;21.70;99.90
25991;DHT22;13779;-33.886;151.198;2023-03-23T07:55:38;21.70;99.90
25991;DHT22;13779;-33.886;151.198;2023-03-23T07:58:06;21.70;99.90
25991;DHT22;13779;-33.886;151.198;2023-03-23T08:00:36;21.70;99.90
25991;DHT22;13779;-33.886;151.198;2023-03-23T08:03:05;21.70;99.90
25991;DHT22;13779;-33.886;151.198;2023-03-23T08:05:34;21.60;99.90
25991;DHT22;13779;-33.886;151.198;2023-03-23T08:08:03;21.70;99.90
25991;DHT22;13779;-33.886;151.198;2023-03-23T08:10:32;21.70;99.90
25991;DHT22;13779;-33.886;151.198;2023-03-23T08:13:00;21.70;99.90
25991;DHT22;13779;-33.886;151.198;2023-03-23T08:15:29;21.70;99.90
25991;DHT22;13779;-33.886;151.198;2023-03-23T08:17:59;21.70;99.90
25991;DHT22;13779;-33.886;151.198;2023-03-23T08:20:28;21.70;99.90
25991;DHT22;13779;-33.886;151.198;2023-03-23T08:22:57;21.60;99.90
25991;DHT22;13779;-33.886;151.198;2023-03-23T08:25:27;21.60;99.90
25991;DHT22;13779;-33.886;151.198;2023-03-23T08:27:59;21.50;99.90
25991;DHT22;13779;-33.886;151.198;2023-03-23T08:30:31;21.60;99.90
25991;DHT22;13779;-33.886;151.198;2023-03-23T08:33:01;21.50;99.90
25991;DHT22;13779;-33.886;151.198;2023-03-23T08:35:30;21.50;99.90
25991;DHT22;13779;-33.886;151.198;2023-03-23T08:37:58;21.50;99.90
25991;DHT22;13779;-33.886;151.198;2023-03-23T08:40:26;21.50;99.90
25991;DHT22;13779;-33.886;151.198;2023-03-23T08:42:55;21.50;99.90
25991;DHT22;13779;-33.886;151.198;2023-03-23T08:45:24;21.50;99.90
25991;DHT22;13779;-33.886;151.198;2023-03-23T08:47:53;21.60;99.90
25991;DHT22;13779;-33.886;151.198;2023-03-23T08:50:28;21.60;99.90
25991;DHT22;13779;-33.886;151.198;2023-03-23T08:52:57;21.60;99.90
25991;DHT22;13779;-33.886;151.198;2023-03-23T08:55:25;21.70;99.90
25991;DHT22;13779;-33.886;151.198;2023-03-23T08:57:54;21.70;99.90
25991;DHT22;13779;-33.886;151.198;2023-03-23T09:00:22;21.70;99.90
25991;DHT22;13779;-33.886;151.198;2023-03-23T09:02:53;21.70;99.90
25991;DHT22;13779;-33.886;151.198;2023-03-23T09:05:26;21.70;99.90
25991;DHT22;13779;-33.886;151.198;2023-03-23T09:07:57;21.70;99.90
25991;DHT22;13779;-33.886;151.198;2023-03-23T09:10:28;21.70;99.90
25991;DHT22;13779;-33.886;151.198;2023-03-23T09:12:57;21.70;99.90
25991;DHT22;13779;-33.886;151.198;2023-03-23T09:15:25;21.70;99.90
25991;DHT22;13779;-33.886;151.198;2023-03-23T09:17:54;21.70;99.90
25991;DHT22;13779;-33.886;151.198;2023-03-23T09:20:25;21.70;99.90
25991;DHT22;13779;-33.886;151.198;2023-03-23T09:22:55;21.70;99.90
25991;DHT22;13779;-33.886;151.198;2023-03-23T09:25:26;21.70;99.90
25991;DHT22;13779;-33.886;151.198;2023-03-23T09:27:58;21.70;99.90
25991;DHT22;13779;-33.886;151.198;2023-03-23T09:30:28;21.70;99.90
25991;DHT22;13779;-33.886;151.198;2023-03-23T09:32:59;21.60;99.90
25991;DHT22;13779;-33.886;151.198;2023-03-23T09:35:28;21.60;99.90
25991;DHT22;13779;-33.886;151.198;2023-03-23T09:37:58;21.50;99.90
25991;DHT22;13779;-33.886;151.198;2023-03-23T09:52:03;21.50;99.90
25991;DHT22;13779;-33.886;151.198;2023-03-23T09:54:37;21.40;99.90
25991;DHT22;13779;-33.886;151.198;2023-03-23T09:57:13;21.40;99.90
25991;DHT22;13779;-33.886;151.198;2023-03-23T09:59:55;21.40;99.90
25991;DHT22;13779;-33.886;151.198;2023-03-23T10:02:43;21.40;99.90
25991;DHT22;13779;-33.886;151.198;2023-03-23T10:05:34;21.40;99.90
25991;DHT22;13779;-33.886;151.198;2023-03-23T10:08:14;21.50;99.90
25991;DHT22;13779;-33.886;151.198;2023-03-23T10:16:12;21.30;99.90
25991;DHT22;13779;-33.886;151.198;2023-03-23T10:18:49;21.40;99.90
25991;DHT22;13779;-33.886;151.198;2023-03-23T10:21:21;21.40;99.90
25991;DHT22;13779;-33.886;151.198;2023-03-23T10:24:01;21.40;99.90
25991;DHT22;13779;-33.886;151.198;2023-03-23T10:27:13;21.30;99.90
25991;DHT22;13779;-33.886;151.198;2023-03-23T10:29:41;21.40;99.90
25991;DHT22;13779;-33.886;151.198;2023-03-23T10:32:14;21.40;99.90
25991;DHT22;13779;-33.886;151.198;2023-03-23T10:35:02;21.50;99.90
25991;DHT22;13779;-33.886;151.198;2023-03-23T10:37:43;21.50;99.90
25991;DHT22;13779;-33.886;151.198;2023-03-23T10:40:19;21.50;99.90
25991;DHT22;13779;-33.886;151.198;2023-03-23T10:42:48;21.50;99.90
25991;DHT22;13779;-33.886;151.198;2023-03-23T10:45:28;21.50;99.90
25991;DHT22;13779;-33.886;151.198;2023-03-23T10:48:15;21.40;99.90
25991;DHT22;13779;-33.886;151.198;2023-03-23T10:50:48;21.30;99.90
25991;DHT22;13779;-33.886;151.198;2023-03-23T10:53:25;21.30;99.90
25991;DHT22;13779;-33.886;151.198;2023-03-23T10:55:55;21.30;99.90
25991;DHT22;13779;-33.886;151.198;2023-03-23T10:58:28;21.30;99.90
25991;DHT22;13779;-33.886;151.198;2023-03-23T11:00:57;21.20;99.90
25991;DHT22;13779;-33.886;151.198;2023-03-23T11:03:44;21.20;99.90
25991;DHT22;13779;-33.886;151.198;2023-03-23T11:06:24;21.20;99.90
25991;DHT22;13779;-33.886;151.198;2023-03-23T11:08:56;21.20;99.90
25991;DHT22;13779;-33.886;151.198;2023-03-23T11:11:36;21.10;99.90
25991;DHT22;13779;-33.886;151.198;2023-03-23T11:14:24;21.20;99.90
25991;DHT22;13779;-33.886;151.198;2023-03-23T11:16:54;21.10;99.90
25991;DHT22;13779;-33.886;151.198;2023-03-23T11:19:28;21.20;99.90
25991;DHT22;13779;-33.886;151.198;2023-03-23T11:22:06;21.20;99.90
25991;DHT22;13779;-33.886;151.198;2023-03-23T11:24:42;21.20;99.90
25991;DHT22;13779;-33.886;151.198;2023-03-23T11:27:11;21.10;99.90
25991;DHT22;13779;-33.886;151.198;2023-03-23T11:30:09;21.10;99.90
25991;DHT22;13779;-33.886;151.198;2023-03-23T11:32:36;21.10;99.90
25991;DHT22;13779;-33.886;151.198;2023-03-23T11:35:11;21.10;99.90
25991;DHT22;13779;-33.886;151.198;2023-03-23T11:37:46;21.10;99.90
25991;DHT22;13779;-33.886;151.198;2023-03-23T11:40:16;21.10;99.90
25991;DHT22;13779;-33.886;151.198;2023-03-23T11:42:48;21.10;99.90
25991;DHT22;13779;-33.886;151.198;2023-03-23T11:45:39;21.00;99.90
25991;DHT22;13779;-33.886;151.198;2023-03-23T11:54:26;21.00;99.90
25991;DHT22;13779;-33.886;151.198;2023-03-23T11:56:56;21.00;99.90
25991;DHT22;13779;-33.886;151.198;2023-03-23T11:59:33;21.00;99.90
25991;DHT22;13779;-33.886;151.198;2023-03-23T12:10:33;21.10;99.90
25991;DHT22;13779;-33.886;151.198;2023-03-23T12:29:20;20.90;99.90
25991;DHT22;13779;-33.886;151.198;2023-03-23T12:34:45;20.80;99.90
25991;DHT22;13779;-33.886;151.198;2023-03-23T12:40:16;20.80;99.90
25991;DHT22;13779;-33.886;151.198;2023-03-23T12:43:47;20.80;99.90
25991;DHT22;13779;-33.886;151.198;2023-03-23T12:46:39;20.80;99.90
25991;DHT22;13779;-33.886;151.198;2023-03-23T12:49:26;20.80;99.90
25991;DHT22;13779;-33.886;151.198;2023-03-23T12:52:16;20.80;99.90
25991;DHT22;13779;-33.886;151.198;2023-03-23T13:03:23;20.80;99.90
25991;DHT22;13779;-33.886;151.198;2023-03-23T13:06:06;20.80;99.90
25991;DHT22;13779;-33.886;151.198;2023-03-23T13:08:42;20.80;99.90
25991;DHT22;13779;-33.886;151.198;2023-03-23T13:11:23;20.70;99.90
25991;DHT22;13779;-33.886;151.198;2023-03-23T13:13:58;20.70;99.90
25991;DHT22;13779;-33.886;151.198;2023-03-23T13:19:30;20.80;99.90
25991;DHT22;13779;-33.886;151.198;2023-03-23T13:22:13;20.70;99.90
25991;DHT22;13779;-33.886;151.198;2023-03-23T13:24:56;20.70;99.90
25991;DHT22;13779;-33.886;151.198;2023-03-23T13:27:26;20.70;99.90
25991;DHT22;13779;-33.886;151.198;2023-03-23T13:29:56;20.60;99.90
25991;DHT22;13779;-33.886;151.198;2023-03-23T13:32:38;20.70;99.90
25991;DHT22;13779;-33.886;151.198;2023-03-23T13:35:18;20.60;99.90
25991;DHT22;13779;-33.886;151.198;2023-03-23T13:37:51;20.60;99.90
25991;DHT22;13779;-33.886;151.198;2023-03-23T13:40:29;20.60;99.90
25991;DHT22;13779;-33.886;151.198;2023-03-23T13:42:59;20.60;99.90
25991;DHT22;13779;-33.886;151.198;2023-03-23T13:48:21;20.60;99.90
25991;DHT22;13779;-33.886;151.198;2023-03-23T13:50:58;20.60;99.90
25991;DHT22;13779;-33.886;151.198;2023-03-23T13:56:15;20.60;99.90
25991;DHT22;13779;-33.886;151.198;2023-03-23T13:58:52;20.60;99.90
25991;DHT22;13779;-33.886;151.198;2023-03-23T14:01:35;20.60;99.90
25991;DHT22;13779;-33.886;151.198;2023-03-23T14:04:07;20.60;99.90
25991;DHT22;13779;-33.886;151.198;2023-03-23T14:06:36;20.60;99.90
25991;DHT22;13779;-33.886;151.198;2023-03-23T14:09:36;20.60;99.90
25991;DHT22;13779;-33.886;151.198;2023-03-23T14:12:20;20.60;99.90
25991;DHT22;13779;-33.886;151.198;2023-03-23T14:15:02;20.70;99.90
25991;DHT22;13779;-33.886;151.198;2023-03-23T14:17:41;20.70;99.90
25991;DHT22;13779;-33.886;151.198;2023-03-23T14:20:31;20.70;99.90
25991;DHT22;13779;-33.886;151.198;2023-03-23T14:23:00;20.60;99.90
25991;DHT22;13779;-33.886;151.198;2023-03-23T14:25:30;20.60;99.90
25991;DHT22;13779;-33.886;151.198;2023-03-23T14:27:59;20.60;99.90
25991;DHT22;13779;-33.886;151.198;2023-03-23T14:30:35;20.60;99.90
25991;DHT22;13779;-33.886;151.198;2023-03-23T14:33:05;20.70;99.90
25991;DHT22;13779;-33.886;151.198;2023-03-23T14:35:37;20.60;99.90
25991;DHT22;13779;-33.886;151.198;2023-03-23T14:38:19;20.50;99.90
25991;DHT22;13779;-33.886;151.198;2023-03-23T14:40:48;20.60;99.90
25991;DHT22;13779;-33.886;151.198;2023-03-23T14:43:19;20.60;99.90
25991;DHT22;13779;-33.886;151.198;2023-03-23T14:45:54;20.70;99.90
25991;DHT22;13779;-33.886;151.198;2023-03-23T14:48:22;20.70;99.90
25991;DHT22;13779;-33.886;151.198;2023-03-23T14:50:58;20.70;99.90
25991;DHT22;13779;-33.886;151.198;2023-03-23T14:53:38;20.80;99.90
25991;DHT22;13779;-33.886;151.198;2023-03-23T14:56:15;20.80;99.90
25991;DHT22;13779;-33.886;151.198;2023-03-23T14:58:53;20.70;99.90
25991;DHT22;13779;-33.886;151.198;2023-03-23T15:01:29;20.70;99.90
25991;DHT22;13779;-33.886;151.198;2023-03-23T15:06:33;20.70;99.90
25991;DHT22;13779;-33.886;151.198;2023-03-23T15:09:15;20.70;99.90
25991;DHT22;13779;-33.886;151.198;2023-03-23T15:11:55;20.60;99.90
25991;DHT22;13779;-33.886;151.198;2023-03-23T15:14:47;20.60;99.90
25991;DHT22;13779;-33.886;151.198;2023-03-23T15:17:30;20.50;99.90
25991;DHT22;13779;-33.886;151.198;2023-03-23T15:20:10;20.50;99.90
25991;DHT22;13779;-33.886;151.198;2023-03-23T15:22:46;20.50;99.90
25991;DHT22;13779;-33.886;151.198;2023-03-23T15:25:34;20.50;99.90
25991;DHT22;13779;-33.886;151.198;2023-03-23T15:28:21;20.50;99.90
25991;DHT22;13779;-33.886;151.198;2023-03-23T15:30:52;20.40;99.90
25991;DHT22;13779;-33.886;151.198;2023-03-23T15:33:21;20.40;99.90
25991;DHT22;13779;-33.886;151.198;2023-03-23T15:35:55;20.40;99.90
25991;DHT22;13779;-33.886;151.198;2023-03-23T15:38:31;20.40;99.90
25991;DHT22;13779;-33.886;151.198;2023-03-23T15:41:02;20.40;99.90
25991;DHT22;13779;-33.886;151.198;2023-03-23T15:43:37;20.50;99.90
25991;DHT22;13779;-33.886;151.198;2023-03-23T15:48:54;20.40;99.90
25991;DHT22;13779;-33.886;151.198;2023-03-23T15:51:30;20.40;99.90
25991;DHT22;13779;-33.886;151.198;2023-03-23T15:54:00;20.40;99.90
25991;DHT22;13779;-33.886;151.198;2023-03-23T15:56:28;20.40;99.90
25991;DHT22;13779;-33.886;151.198;2023-03-23T15:58:58;20.40;99.90
25991;DHT22;13779;-33.886;151.198;2023-03-23T16:01:30;20.40;99.90
25991;DHT22;13779;-33.886;151.198;2023-03-23T16:04:10;20.40;99.90
25991;DHT22;13779;-33.886;151.198;2023-03-23T16:06:42;20.40;99.90
25991;DHT22;13779;-33.886;151.198;2023-03-23T16:09:15;20.40;99.90
25991;DHT22;13779;-33.886;151.198;2023-03-23T16:11:46;20.40;99.90
25991;DHT22;13779;-33.886;151.198;2023-03-23T16:14:16;20.40;99.90
25991;DHT22;13779;-33.886;151.198;2023-03-23T16:16:48;20.30;99.90
25991;DHT22;13779;-33.886;151.198;2023-03-23T16:19:21;20.30;99.90
25991;DHT22;13779;-33.886;151.198;2023-03-23T16:21:52;20.30;99.90
25991;DHT22;13779;-33.886;151.198;2023-03-23T16:24:22;20.30;99.90
25991;DHT22;13779;-33.886;151.198;2023-03-23T16:26:53;20.30;99.90
25991;DHT22;13779;-33.886;151.198;2023-03-23T16:29:23;20.30;99.90
25991;DHT22;13779;-33.886;151.198;2023-03-23T16:32:13;20.30;99.90
25991;DHT22;13779;-33.886;151.198;2023-03-23T16:34:43;20.30;99.90
25991;DHT22;13779;-33.886;151.198;2023-03-23T16:37:13;20.30;99.90
25991;DHT22;13779;-33.886;151.198;2023-03-23T16:39:45;20.20;99.90
25991;DHT22;13779;-33.886;151.198;2023-03-23T16:42:15;20.20;99.90
25991;DHT22;13779;-33.886;151.198;2023-03-23T16:44:45;20.10;99.90
25991;DHT22;13779;-33.886;151.198;2023-03-23T16:47:17;20.10;99.90
25991;DHT22;13779;-33.886;151.198;2023-03-23T16:49:52;20.10;99.90